sensor_id;sensor_type;location;lat;lon;timestamp;temperature;humidity
19586;DHT22;9939;49.246;9.106;2022-08-03T00:01:26;19.30;99.90
19586;DHT22;9939;49.246;9.106;2022-08-03T00:03:53;19.30;99.90
19586;DHT22;9939;49.246;9.106;2022-08-03T00:06:20;19.40;99.90
19586;DHT22;9939;49.246;9.106;2022-08-03T00:08:47;19.40;99.90
19586;DHT22;9939;49.246;9.106;2022-08-03T00:11:14;19.30;99.90
19586;DHT22;9939;49.246;9.106;2022-08-03T00:13:41;19.20;99.90
19586;DHT22;9939;49.246;9.106;2022-08-03T00:16:08;19.10;99.90
19586;DHT22;9939;49.246;9.106;2022-08-03T00:18:36;19.10;99.90
19586;DHT22;9939;49.246;9.106;2022-08-03T00:21:04;19.10;99.90
19586;DHT22;9939;49.246;9.106;2022-08-03T00:23:31;19.00;99.90
19586;DHT22;9939;49.246;9.106;2022-08-03T00:26:18;18.90;99.90
19586;DHT22;9939;49.246;9.106;2022-08-03T00:28:45;18.90;99.90
19586;DHT22;9939;49.246;9.106;2022-08-03T00:31:12;18.80;99.90
19586;DHT22;9939;49.246;9.106;2022-08-03T00:33:39;18.70;99.90
19586;DHT22;9939;49.246;9.106;2022-08-03T00:36:27;18.70;99.90
19586;DHT22;9939;49.246;9.106;2022-08-03T00:38:54;18.80;99.90
19586;DHT22;9939;49.246;9.106;2022-08-03T00:41:22;18.80;99.90
19586;DHT22;9939;49.246;9.106;2022-08-03T00:43:49;18.70;99.90
19586;DHT22;9939;49.246;9.106;2022-08-03T00:46:16;18.70;99.90
19586;DHT22;9939;49.246;9.106;2022-08-03T00:48:49;18.80;99.90
19586;DHT22;9939;49.246;9.106;2022-08-03T00:51:16;18.70;99.90
19586;DHT22;9939;49.246;9.106;2022-08-03T00:53:43;18.70;99.90
19586;DHT22;9939;49.246;9.106;2022-08-03T00:56:17;18.70;99.90
19586;DHT22;9939;49.246;9.106;2022-08-03T00:58:45;18.60;99.90
19586;DHT22;9939;49.246;9.106;2022-08-03T01:01:13;18.50;99.90
19586;DHT22;9939;49.246;9.106;2022-08-03T01:03:40;18.40;99.90
19586;DHT22;9939;49.246;9.106;2022-08-03T01:06:21;18.30;99.90
19586;DHT22;9939;49.246;9.106;2022-08-03T01:11:53;18.40;99.90
19586;DHT22;9939;49.246;9.106;2022-08-03T01:14:43;18.30;99.90
19586;DHT22;9939;49.246;9.106;2022-08-03T01:17:24;18.20;99.90
19586;DHT22;9939;49.246;9.106;2022-08-03T01:20:09;18.30;99.90
19586;DHT22;9939;49.246;9.106;2022-08-03T01:31:07;18.20;99.90
19586;DHT22;9939;49.246;9.106;2022-08-03T01:33:45;18.10;99.90
19586;DHT22;9939;49.246;9.106;2022-08-03T01:36:21;18.20;99.90
19586;DHT22;9939;49.246;9.106;2022-08-03T01:38:51;18.10;99.90
19586;DHT22;9939;49.246;9.106;2022-08-03T01:41:28;18.20;99.90
19586;DHT22;9939;49.246;9.106;2022-08-03T01:43:57;18.30;99.90
19586;DHT22;9939;49.246;9.106;2022-08-03T01:46:46;18.20;99.90
19586;DHT22;9939;49.246;9.106;2022-08-03T01:49:16;18.30;99.90
19586;DHT22;9939;49.246;9.106;2022-08-03T01:51:46;18.10;99.90
19586;DHT22;9939;49.246;9.106;2022-08-03T01:54:36;18.00;99.90
19586;DHT22;9939;49.246;9.106;2022-08-03T01:57:06;17.90;99.90
19586;DHT22;9939;49.246;9.106;2022-08-03T01:59:35;17.90;99.90
19586;DHT22;9939;49.246;9.106;2022-08-03T02:02:04;17.90;99.90
19586;DHT22;9939;49.246;9.106;2022-08-03T02:04:55;17.90;99.90
19586;DHT22;9939;49.246;9.106;2022-08-03T02:07:25;17.80;99.90
19586;DHT22;9939;49.246;9.106;2022-08-03T02:09:54;17.80;99.90
19586;DHT22;9939;49.246;9.106;2022-08-03T02:12:23;17.70;99.90
19586;DHT22;9939;49.246;9.106;2022-08-03T02:14:51;17.60;99.90
19586;DHT22;9939;49.246;9.106;2022-08-03T02:17:18;17.60;99.90
19586;DHT22;9939;49.246;9.106;2022-08-03T02:20:10;17.50;99.90
19586;DHT22;9939;49.246;9.106;2022-08-03T02:22:39;17.50;99.90
19586;DHT22;9939;49.246;9.106;2022-08-03T02:25:08;17.50;99.90
19586;DHT22;9939;49.246;9.106;2022-08-03T02:27:50;17.40;99.90
19586;DHT22;9939;49.246;9.106;2022-08-03T02:30:19;17.50;99.90
19586;DHT22;9939;49.246;9.106;2022-08-03T02:32:56;17.60;99.90
19586;DHT22;9939;49.246;9.106;2022-08-03T02:35:27;17.50;99.90
19586;DHT22;9939;49.246;9.106;2022-08-03T02:38:01;17.50;99.90
19586;DHT22;9939;49.246;9.106;2022-08-03T02:40:30;17.40;99.90
19586;DHT22;9939;49.246;9.106;2022-08-03T02:43:01;17.40;99.90
19586;DHT22;9939;49.246;9.106;2022-08-03T02:45:31;17.30;99.90
19586;DHT22;9939;49.246;9.106;2022-08-03T02:48:03;17.30;99.90
19586;DHT22;9939;49.246;9.106;2022-08-03T02:50:32;17.30;99.90
19586;DHT22;9939;49.246;9.106;2022-08-03T02:53:02;17.30;99.90
19586;DHT22;9939;49.246;9.106;2022-08-03T02:55:30;17.20;99.90
19586;DHT22;9939;49.246;9.106;2022-08-03T02:57:59;17.20;99.90
19586;DHT22;9939;49.246;9.106;2022-08-03T03:00:29;17.10;99.90
19586;DHT22;9939;49.246;9.106;2022-08-03T03:02:58;17.10;99.90
19586;DHT22;9939;49.246;9.106;2022-08-03T03:05:27;17.20;99.90
19586;DHT22;9939;49.246;9.106;2022-08-03T03:08:16;17.20;99.90
19586;DHT22;9939;49.246;9.106;2022-08-03T03:10:48;17.10;99.90
19586;DHT22;9939;49.246;9.106;2022-08-03T03:13:21;17.30;99.90
19586;DHT22;9939;49.246;9.106;2022-08-03T03:15:49;17.30;99.90
19586;DHT22;9939;49.246;9.106;2022-08-03T03:18:20;17.20;99.90
19586;DHT22;9939;49.246;9.106;2022-08-03T03:20:50;17.20;99.90
19586;DHT22;9939;49.246;9.106;2022-08-03T03:23:22;17.10;99.90
19586;DHT22;9939;49.246;9.106;2022-08-03T03:25:51;17.10;99.90
19586;DHT22;9939;49.246;9.106;2022-08-03T03:28:18;17.20;99.90
19586;DHT22;9939;49.246;9.106;2022-08-03T03:30:46;17.20;99.90
19586;DHT22;9939;49.246;9.106;2022-08-03T03:33:19;17.20;99.90
19586;DHT22;9939;49.246;9.106;2022-08-03T03:35:47;17.00;99.90
19586;DHT22;9939;49.246;9.106;2022-08-03T03:38:14;16.90;99.90
19586;DHT22;9939;49.246;9.106;2022-08-03T03:40:41;16.70;99.90
19586;DHT22;9939;49.246;9.106;2022-08-03T03:43:10;16.80;99.90
19586;DHT22;9939;49.246;9.106;2022-08-03T03:45:40;16.80;99.90
19586;DHT22;9939;49.246;9.106;2022-08-03T03:48:08;16.90;99.90
19586;DHT22;9939;49.246;9.106;2022-08-03T03:50:36;17.00;99.90
19586;DHT22;9939;49.246;9.106;2022-08-03T03:53:03;16.90;99.90
19586;DHT22;9939;49.246;9.106;2022-08-03T03:55:36;17.00;99.90
19586;DHT22;9939;49.246;9.106;2022-08-03T03:58:23;17.00;99.90
19586;DHT22;9939;49.246;9.106;2022-08-03T04:00:50;17.00;99.90
19586;DHT22;9939;49.246;9.106;2022-08-03T04:03:19;16.90;99.90
19586;DHT22;9939;49.246;9.106;2022-08-03T04:05:46;16.80;99.90
19586;DHT22;9939;49.246;9.106;2022-08-03T04:08:32;16.80;99.90
19586;DHT22;9939;49.246;9.106;2022-08-03T04:11:25;16.90;99.90
19586;DHT22;9939;49.246;9.106;2022-08-03T04:14:17;17.00;99.90
19586;DHT22;9939;49.246;9.106;2022-08-03T04:16:52;16.90;99.90
19586;DHT22;9939;49.246;9.106;2022-08-03T04:19:37;16.80;99.90
19586;DHT22;9939;49.246;9.106;2022-08-03T04:22:11;16.70;99.90
19586;DHT22;9939;49.246;9.106;2022-08-03T04:24:47;16.80;99.90
19586;DHT22;9939;49.246;9.106;2022-08-03T04:27:22;17.00;99.90
19586;DHT22;9939;49.246;9.106;2022-08-03T04:29:52;16.90;99.90
19586;DHT22;9939;49.246;9.106;2022-08-03T04:32:21;16.90;99.90
19586;DHT22;9939;49.246;9.106;2022-08-03T04:34:51;16.80;99.90
19586;DHT22;9939;49.246;9.106;2022-08-03T04:37:25;16.80;99.90
19586;DHT22;9939;49.246;9.106;2022-08-03T04:39:56;16.90;99.90
19586;DHT22;9939;49.246;9.106;2022-08-03T04:42:26;17.00;99.90
19586;DHT22;9939;49.246;9.106;2022-08-03T04:44:54;17.10;99.90
19586;DHT22;9939;49.246;9.106;2022-08-03T04:47:28;17.00;99.90
19586;DHT22;9939;49.246;9.106;2022-08-03T04:49:55;17.00;99.90
19586;DHT22;9939;49.246;9.106;2022-08-03T04:52:22;17.10;99.90
19586;DHT22;9939;49.246;9.106;2022-08-03T04:54:49;17.20;99.90
19586;DHT22;9939;49.246;9.106;2022-08-03T04:57:17;17.30;99.90
19586;DHT22;9939;49.246;9.106;2022-08-03T04:59:52;17.30;99.90
19586;DHT22;9939;49.246;9.106;2022-08-03T05:02:29;17.40;99.90
19586;DHT22;9939;49.246;9.106;2022-08-03T05:04:57;17.50;99.90
19586;DHT22;9939;49.246;9.106;2022-08-03T05:07:24;17.50;99.90
19586;DHT22;9939;49.246;9.106;2022-08-03T05:09:51;17.50;99.90
19586;DHT22;9939;49.246;9.106;2022-08-03T05:12:29;17.70;99.90
19586;DHT22;9939;49.246;9.106;2022-08-03T05:14:59;17.70;99.90
19586;DHT22;9939;49.246;9.106;2022-08-03T05:17:26;17.90;99.90
19586;DHT22;9939;49.246;9.106;2022-08-03T05:19:54;17.90;99.90
19586;DHT22;9939;49.246;9.106;2022-08-03T05:22:21;18.00;99.90
19586;DHT22;9939;49.246;9.106;2022-08-03T05:24:48;18.20;99.90
19586;DHT22;9939;49.246;9.106;2022-08-03T05:27:15;18.40;99.90
19586;DHT22;9939;49.246;9.106;2022-08-03T05:29:46;18.40;99.90
19586;DHT22;9939;49.246;9.106;2022-08-03T05:32:14;18.70;99.90
19586;DHT22;9939;49.246;9.106;2022-08-03T05:34:41;18.70;99.90
19586;DHT22;9939;49.246;9.106;2022-08-03T05:37:08;18.90;99.90
19586;DHT22;9939;49.246;9.106;2022-08-03T05:39:36;19.20;99.90
19586;DHT22;9939;49.246;9.106;2022-08-03T05:42:03;19.30;99.90
19586;DHT22;9939;49.246;9.106;2022-08-03T05:44:30;19.40;99.90
19586;DHT22;9939;49.246;9.106;2022-08-03T05:46:57;19.60;99.90
19586;DHT22;9939;49.246;9.106;2022-08-03T05:49:25;19.90;99.90
19586;DHT22;9939;49.246;9.106;2022-08-03T05:51:52;20.00;99.90
19586;DHT22;9939;49.246;9.106;2022-08-03T05:54:36;20.30;99.90
19586;DHT22;9939;49.246;9.106;2022-08-03T05:57:23;20.50;99.90
19586;DHT22;9939;49.246;9.106;2022-08-03T05:59:50;20.70;99.90
19586;DHT22;9939;49.246;9.106;2022-08-03T06:02:21;20.90;99.90
19586;DHT22;9939;49.246;9.106;2022-08-03T06:04:48;21.00;99.90
19586;DHT22;9939;49.246;9.106;2022-08-03T06:07:15;21.00;99.90
19586;DHT22;9939;49.246;9.106;2022-08-03T06:09:42;21.20;99.90
19586;DHT22;9939;49.246;9.106;2022-08-03T06:12:29;21.30;99.90
19586;DHT22;9939;49.246;9.106;2022-08-03T06:14:56;21.70;99.90
19586;DHT22;9939;49.246;9.106;2022-08-03T06:17:23;21.80;99.90
19586;DHT22;9939;49.246;9.106;2022-08-03T06:19:52;22.00;99.90
19586;DHT22;9939;49.246;9.106;2022-08-03T06:22:19;22.30;99.90
19586;DHT22;9939;49.246;9.106;2022-08-03T06:24:47;22.40;99.90
19586;DHT22;9939;49.246;9.106;2022-08-03T06:27:20;22.50;99.90
19586;DHT22;9939;49.246;9.106;2022-08-03T06:30:03;22.60;99.90
19586;DHT22;9939;49.246;9.106;2022-08-03T06:32:30;22.70;99.90
19586;DHT22;9939;49.246;9.106;2022-08-03T06:34:57;22.60;99.90
19586;DHT22;9939;49.246;9.106;2022-08-03T06:37:24;22.70;99.90
19586;DHT22;9939;49.246;9.106;2022-08-03T06:39:52;22.90;99.90
19586;DHT22;9939;49.246;9.106;2022-08-03T06:42:20;22.80;99.90
19586;DHT22;9939;49.246;9.106;2022-08-03T06:44:48;22.90;99.90
19586;DHT22;9939;49.246;9.106;2022-08-03T06:47:15;23.10;99.90
19586;DHT22;9939;49.246;9.106;2022-08-03T06:49:42;23.40;99.90
19586;DHT22;9939;49.246;9.106;2022-08-03T06:52:29;23.70;99.90
19586;DHT22;9939;49.246;9.106;2022-08-03T06:55:04;23.90;99.90
19586;DHT22;9939;49.246;9.106;2022-08-03T06:57:31;23.80;99.90
19586;DHT22;9939;49.246;9.106;2022-08-03T06:59:58;24.00;99.90
19586;DHT22;9939;49.246;9.106;2022-08-03T07:02:37;24.10;99.90
19586;DHT22;9939;49.246;9.106;2022-08-03T07:05:06;24.20;99.90
19586;DHT22;9939;49.246;9.106;2022-08-03T07:07:34;24.40;99.90
19586;DHT22;9939;49.246;9.106;2022-08-03T07:10:02;24.30;99.90
19586;DHT22;9939;49.246;9.106;2022-08-03T07:12:29;24.50;99.90
19586;DHT22;9939;49.246;9.106;2022-08-03T07:14:58;24.40;99.90
19586;DHT22;9939;49.246;9.106;2022-08-03T07:17:30;24.70;99.90
19586;DHT22;9939;49.246;9.106;2022-08-03T07:19:58;24.90;99.90
19586;DHT22;9939;49.246;9.106;2022-08-03T07:22:26;25.00;99.90
19586;DHT22;9939;49.246;9.106;2022-08-03T07:24:53;25.10;99.90
19586;DHT22;9939;49.246;9.106;2022-08-03T07:27:20;25.30;99.90
19586;DHT22;9939;49.246;9.106;2022-08-03T07:29:47;25.50;99.90
19586;DHT22;9939;49.246;9.106;2022-08-03T07:32:14;25.40;99.90
19586;DHT22;9939;49.246;9.106;2022-08-03T07:34:41;25.60;99.90
19586;DHT22;9939;49.246;9.106;2022-08-03T07:37:08;25.80;99.90
19586;DHT22;9939;49.246;9.106;2022-08-03T07:39:34;25.90;99.90
19586;DHT22;9939;49.246;9.106;2022-08-03T07:42:02;26.10;99.90
19586;DHT22;9939;49.246;9.106;2022-08-03T07:44:29;25.60;99.90
19586;DHT22;9939;49.246;9.106;2022-08-03T07:46:55;25.60;99.90
19586;DHT22;9939;49.246;9.106;2022-08-03T07:49:23;25.80;99.90
19586;DHT22;9939;49.246;9.106;2022-08-03T07:51:50;26.10;99.90
19586;DHT22;9939;49.246;9.106;2022-08-03T07:54:37;26.20;99.90
19586;DHT22;9939;49.246;9.106;2022-08-03T07:57:04;26.30;99.90
19586;DHT22;9939;49.246;9.106;2022-08-03T07:59:31;26.60;99.90
19586;DHT22;9939;49.246;9.106;2022-08-03T08:02:18;26.60;99.90
19586;DHT22;9939;49.246;9.106;2022-08-03T08:04:45;26.70;99.90
19586;DHT22;9939;49.246;9.106;2022-08-03T08:07:12;26.50;99.90
19586;DHT22;9939;49.246;9.106;2022-08-03T08:09:41;26.40;99.90
19586;DHT22;9939;49.246;9.106;2022-08-03T08:12:08;26.60;99.90
19586;DHT22;9939;49.246;9.106;2022-08-03T08:14:41;26.90;99.90
19586;DHT22;9939;49.246;9.106;2022-08-03T08:17:11;27.20;99.90
19586;DHT22;9939;49.246;9.106;2022-08-03T08:19:39;27.10;99.90
19586;DHT22;9939;49.246;9.106;2022-08-03T08:22:17;27.30;99.90
19586;DHT22;9939;49.246;9.106;2022-08-03T08:24:55;27.40;99.90
19586;DHT22;9939;49.246;9.106;2022-08-03T08:27:22;27.70;99.90
19586;DHT22;9939;49.246;9.106;2022-08-03T08:29:49;28.10;99.90
19586;DHT22;9939;49.246;9.106;2022-08-03T08:32:22;28.30;99.90
19586;DHT22;9939;49.246;9.106;2022-08-03T08:34:49;28.20;99.90
19586;DHT22;9939;49.246;9.106;2022-08-03T08:37:16;28.40;99.90
19586;DHT22;9939;49.246;9.106;2022-08-03T08:39:43;28.70;99.90
19586;DHT22;9939;49.246;9.106;2022-08-03T08:42:10;29.00;99.90
19586;DHT22;9939;49.246;9.106;2022-08-03T08:44:37;29.20;99.90
19586;DHT22;9939;49.246;9.106;2022-08-03T08:47:05;28.70;99.90
19586;DHT22;9939;49.246;9.106;2022-08-03T08:49:35;29.20;99.90
19586;DHT22;9939;49.246;9.106;2022-08-03T08:52:04;29.70;99.90
19586;DHT22;9939;49.246;9.106;2022-08-03T08:54:56;30.90;99.90
19586;DHT22;9939;49.246;9.106;2022-08-03T08:57:29;32.30;99.90
19586;DHT22;9939;49.246;9.106;2022-08-03T09:00:10;33.20;99.90
19586;DHT22;9939;49.246;9.106;2022-08-03T09:02:41;33.10;98.70
19586;DHT22;9939;49.246;9.106;2022-08-03T09:05:10;33.50;98.10
19586;DHT22;9939;49.246;9.106;2022-08-03T09:07:39;32.90;98.60
19586;DHT22;9939;49.246;9.106;2022-08-03T09:10:07;33.40;97.50
19586;DHT22;9939;49.246;9.106;2022-08-03T09:12:42;34.10;96.50
19586;DHT22;9939;49.246;9.106;2022-08-03T09:15:21;34.70;95.90
19586;DHT22;9939;49.246;9.106;2022-08-03T09:17:50;35.80;95.20
19586;DHT22;9939;49.246;9.106;2022-08-03T09:20:19;36.00;94.40
19586;DHT22;9939;49.246;9.106;2022-08-03T09:23:04;34.40;95.10
19586;DHT22;9939;49.246;9.106;2022-08-03T09:25:57;34.50;95.20
19586;DHT22;9939;49.246;9.106;2022-08-03T09:28:33;34.90;94.30
19586;DHT22;9939;49.246;9.106;2022-08-03T09:31:31;35.30;94.30
19586;DHT22;9939;49.246;9.106;2022-08-03T09:34:06;35.00;93.30
19586;DHT22;9939;49.246;9.106;2022-08-03T09:36:38;35.90;92.70
19586;DHT22;9939;49.246;9.106;2022-08-03T09:39:08;35.40;93.20
19586;DHT22;9939;49.246;9.106;2022-08-03T09:41:42;36.70;91.60
19586;DHT22;9939;49.246;9.106;2022-08-03T09:44:09;37.60;90.30
19586;DHT22;9939;49.246;9.106;2022-08-03T09:46:53;37.40;89.40
19586;DHT22;9939;49.246;9.106;2022-08-03T09:49:22;37.20;89.30
19586;DHT22;9939;49.246;9.106;2022-08-03T09:51:49;37.60;88.30
19586;DHT22;9939;49.246;9.106;2022-08-03T09:54:36;37.90;86.90
19586;DHT22;9939;49.246;9.106;2022-08-03T09:57:04;38.10;84.20
19586;DHT22;9939;49.246;9.106;2022-08-03T09:59:32;38.20;82.10
19586;DHT22;9939;49.246;9.106;2022-08-03T10:02:00;37.50;83.10
19586;DHT22;9939;49.246;9.106;2022-08-03T10:04:27;38.20;80.80
19586;DHT22;9939;49.246;9.106;2022-08-03T10:07:21;38.50;81.10
19586;DHT22;9939;49.246;9.106;2022-08-03T10:10:00;39.70;79.40
19586;DHT22;9939;49.246;9.106;2022-08-03T10:12:47;39.70;79.80
19586;DHT22;9939;49.246;9.106;2022-08-03T10:15:15;38.40;81.00
19586;DHT22;9939;49.246;9.106;2022-08-03T10:18:02;39.00;80.60
19586;DHT22;9939;49.246;9.106;2022-08-03T10:20:30;39.00;79.00
19586;DHT22;9939;49.246;9.106;2022-08-03T10:22:59;40.00;78.50
19586;DHT22;9939;49.246;9.106;2022-08-03T10:25:29;39.10;78.50
19586;DHT22;9939;49.246;9.106;2022-08-03T10:28:01;38.80;80.30
19586;DHT22;9939;49.246;9.106;2022-08-03T10:30:31;39.20;78.30
19586;DHT22;9939;49.246;9.106;2022-08-03T10:33:06;39.70;77.50
19586;DHT22;9939;49.246;9.106;2022-08-03T10:35:56;40.00;76.40
19586;DHT22;9939;49.246;9.106;2022-08-03T10:38:42;40.70;74.20
19586;DHT22;9939;49.246;9.106;2022-08-03T10:41:12;40.20;77.00
19586;DHT22;9939;49.246;9.106;2022-08-03T10:43:50;39.90;75.00
19586;DHT22;9939;49.246;9.106;2022-08-03T10:46:20;40.70;74.80
19586;DHT22;9939;49.246;9.106;2022-08-03T10:48:48;41.10;74.00
19586;DHT22;9939;49.246;9.106;2022-08-03T10:51:16;41.40;73.70
19586;DHT22;9939;49.246;9.106;2022-08-03T10:53:43;41.10;75.10
19586;DHT22;9939;49.246;9.106;2022-08-03T10:59:18;39.40;77.40
19586;DHT22;9939;49.246;9.106;2022-08-03T11:01:55;40.60;75.40
19586;DHT22;9939;49.246;9.106;2022-08-03T11:04:27;41.00;72.50
19586;DHT22;9939;49.246;9.106;2022-08-03T11:09:46;40.80;73.20
19586;DHT22;9939;49.246;9.106;2022-08-03T11:14:58;40.70;72.80
19586;DHT22;9939;49.246;9.106;2022-08-03T11:17:25;39.50;73.90
19586;DHT22;9939;49.246;9.106;2022-08-03T11:19:53;40.10;74.70
19586;DHT22;9939;49.246;9.106;2022-08-03T11:22:23;41.00;72.70
19586;DHT22;9939;49.246;9.106;2022-08-03T11:27:21;41.90;71.30
19586;DHT22;9939;49.246;9.106;2022-08-03T11:30:08;40.90;73.70
19586;DHT22;9939;49.246;9.106;2022-08-03T11:35:16;39.90;71.80
19586;DHT22;9939;49.246;9.106;2022-08-03T11:40:47;39.40;72.80
19586;DHT22;9939;49.246;9.106;2022-08-03T11:46:11;40.60;71.30
19586;DHT22;9939;49.246;9.106;2022-08-03T11:49:03;39.30;73.00
19586;DHT22;9939;49.246;9.106;2022-08-03T11:51:35;39.70;72.40
19586;DHT22;9939;49.246;9.106;2022-08-03T11:54:05;39.70;72.10
19586;DHT22;9939;49.246;9.106;2022-08-03T11:56:49;40.10;71.10
19586;DHT22;9939;49.246;9.106;2022-08-03T11:59:16;41.50;70.40
19586;DHT22;9939;49.246;9.106;2022-08-03T12:01:48;40.30;70.00
19586;DHT22;9939;49.246;9.106;2022-08-03T12:04:15;40.10;71.10
19586;DHT22;9939;49.246;9.106;2022-08-03T12:06:57;40.90;70.80
19586;DHT22;9939;49.246;9.106;2022-08-03T12:09:24;38.90;73.10
19586;DHT22;9939;49.246;9.106;2022-08-03T12:11:51;40.30;72.70
19586;DHT22;9939;49.246;9.106;2022-08-03T12:14:27;42.20;69.50
19586;DHT22;9939;49.246;9.106;2022-08-03T12:17:15;44.10;67.20
19586;DHT22;9939;49.246;9.106;2022-08-03T12:19:43;43.80;66.80
19586;DHT22;9939;49.246;9.106;2022-08-03T12:22:10;44.00;64.00
19586;DHT22;9939;49.246;9.106;2022-08-03T12:24:43;44.30;63.10
19586;DHT22;9939;49.246;9.106;2022-08-03T12:27:22;44.10;64.40
19586;DHT22;9939;49.246;9.106;2022-08-03T12:29:53;44.50;63.70
19586;DHT22;9939;49.246;9.106;2022-08-03T12:32:28;45.50;61.10
19586;DHT22;9939;49.246;9.106;2022-08-03T12:34:56;45.40;60.60
19586;DHT22;9939;49.246;9.106;2022-08-03T12:37:27;46.20;59.20
19586;DHT22;9939;49.246;9.106;2022-08-03T12:39:58;47.20;58.40
19586;DHT22;9939;49.246;9.106;2022-08-03T12:42:37;46.10;58.50
19586;DHT22;9939;49.246;9.106;2022-08-03T12:45:24;45.30;59.70
19586;DHT22;9939;49.246;9.106;2022-08-03T12:48:00;46.10;58.00
19586;DHT22;9939;49.246;9.106;2022-08-03T12:50:30;45.90;58.90
19586;DHT22;9939;49.246;9.106;2022-08-03T12:53:02;47.60;58.00
19586;DHT22;9939;49.246;9.106;2022-08-03T12:55:31;48.90;55.30
19586;DHT22;9939;49.246;9.106;2022-08-03T12:58:34;47.50;55.90
19586;DHT22;9939;49.246;9.106;2022-08-03T13:01:03;46.70;56.60
19586;DHT22;9939;49.246;9.106;2022-08-03T13:03:43;47.30;56.30
19586;DHT22;9939;49.246;9.106;2022-08-03T13:06:17;47.70;54.60
19586;DHT22;9939;49.246;9.106;2022-08-03T13:08:45;47.80;53.70
19586;DHT22;9939;49.246;9.106;2022-08-03T13:11:22;48.70;53.00
19586;DHT22;9939;49.246;9.106;2022-08-03T13:14:09;49.00;52.90
19586;DHT22;9939;49.246;9.106;2022-08-03T13:16:49;47.80;53.60
19586;DHT22;9939;49.246;9.106;2022-08-03T13:19:15;48.20;53.30
19586;DHT22;9939;49.246;9.106;2022-08-03T13:21:43;47.50;54.10
19586;DHT22;9939;49.246;9.106;2022-08-03T13:24:31;45.70;55.60
19586;DHT22;9939;49.246;9.106;2022-08-03T13:26:58;44.90;55.70
19586;DHT22;9939;49.246;9.106;2022-08-03T13:29:25;48.30;54.60
19586;DHT22;9939;49.246;9.106;2022-08-03T13:31:52;48.80;52.10
19586;DHT22;9939;49.246;9.106;2022-08-03T13:34:19;47.70;53.60
19586;DHT22;9939;49.246;9.106;2022-08-03T13:36:52;48.40;53.40
19586;DHT22;9939;49.246;9.106;2022-08-03T13:39:35;46.70;54.20
19586;DHT22;9939;49.246;9.106;2022-08-03T13:42:22;45.90;55.40
19586;DHT22;9939;49.246;9.106;2022-08-03T13:44:49;46.10;55.20
19586;DHT22;9939;49.246;9.106;2022-08-03T13:47:16;46.50;53.90
19586;DHT22;9939;49.246;9.106;2022-08-03T13:49:43;47.10;53.70
19586;DHT22;9939;49.246;9.106;2022-08-03T13:52:32;47.70;53.30
19586;DHT22;9939;49.246;9.106;2022-08-03T13:55:03;47.20;52.80
19586;DHT22;9939;49.246;9.106;2022-08-03T13:57:31;46.80;53.80
19586;DHT22;9939;49.246;9.106;2022-08-03T14:00:18;46.60;54.50
19586;DHT22;9939;49.246;9.106;2022-08-03T14:02:59;44.90;55.60
19586;DHT22;9939;49.246;9.106;2022-08-03T14:05:35;44.50;56.70
19586;DHT22;9939;49.246;9.106;2022-08-03T14:08:05;44.80;56.90
19586;DHT22;9939;49.246;9.106;2022-08-03T14:10:36;46.40;54.60
19586;DHT22;9939;49.246;9.106;2022-08-03T14:13:04;44.40;55.80
19586;DHT22;9939;49.246;9.106;2022-08-03T14:15:32;44.60;55.00
19586;DHT22;9939;49.246;9.106;2022-08-03T14:18:08;46.10;53.90
19586;DHT22;9939;49.246;9.106;2022-08-03T14:20:42;45.90;54.60
19586;DHT22;9939;49.246;9.106;2022-08-03T14:23:18;46.80;53.70
19586;DHT22;9939;49.246;9.106;2022-08-03T14:25:45;48.10;52.50
19586;DHT22;9939;49.246;9.106;2022-08-03T14:28:19;47.70;52.00
19586;DHT22;9939;49.246;9.106;2022-08-03T14:30:46;48.70;50.20
19586;DHT22;9939;49.246;9.106;2022-08-03T14:33:14;50.10;49.70
19586;DHT22;9939;49.246;9.106;2022-08-03T14:35:41;50.00;49.20
19586;DHT22;9939;49.246;9.106;2022-08-03T14:38:08;51.10;49.30
19586;DHT22;9939;49.246;9.106;2022-08-03T14:40:35;48.50;50.30
19586;DHT22;9939;49.246;9.106;2022-08-03T14:43:02;45.90;52.40
19586;DHT22;9939;49.246;9.106;2022-08-03T14:45:29;45.60;52.80
19586;DHT22;9939;49.246;9.106;2022-08-03T14:47:55;46.50;52.00
19586;DHT22;9939;49.246;9.106;2022-08-03T14:50:45;46.40;52.00
19586;DHT22;9939;49.246;9.106;2022-08-03T14:53:18;46.40;52.40
19586;DHT22;9939;49.246;9.106;2022-08-03T14:55:45;48.40;50.60
19586;DHT22;9939;49.246;9.106;2022-08-03T14:58:20;49.50;49.70
19586;DHT22;9939;49.246;9.106;2022-08-03T15:00:49;47.80;50.60
19586;DHT22;9939;49.246;9.106;2022-08-03T15:03:18;46.50;51.60
19586;DHT22;9939;49.246;9.106;2022-08-03T15:05:52;48.00;50.20
19586;DHT22;9939;49.246;9.106;2022-08-03T15:08:21;46.60;50.90
19586;DHT22;9939;49.246;9.106;2022-08-03T15:10:48;45.40;51.70
19586;DHT22;9939;49.246;9.106;2022-08-03T15:13:16;46.80;51.10
19586;DHT22;9939;49.246;9.106;2022-08-03T15:15:43;46.90;51.60
19586;DHT22;9939;49.246;9.106;2022-08-03T15:18:10;48.60;49.50
19586;DHT22;9939;49.246;9.106;2022-08-03T15:20:37;49.60;49.60
19586;DHT22;9939;49.246;9.106;2022-08-03T15:23:13;50.60;47.80
19586;DHT22;9939;49.246;9.106;2022-08-03T15:25:44;50.40;47.90
19586;DHT22;9939;49.246;9.106;2022-08-03T15:28:31;48.60;49.20
19586;DHT22;9939;49.246;9.106;2022-08-03T15:30:59;46.90;51.20
19586;DHT22;9939;49.246;9.106;2022-08-03T15:33:28;48.10;49.60
19586;DHT22;9939;49.246;9.106;2022-08-03T15:35:55;48.10;49.30
19586;DHT22;9939;49.246;9.106;2022-08-03T15:38:22;47.90;50.10
19586;DHT22;9939;49.246;9.106;2022-08-03T15:40:53;48.40;49.60
19586;DHT22;9939;49.246;9.106;2022-08-03T15:43:24;49.60;48.60
19586;DHT22;9939;49.246;9.106;2022-08-03T15:45:50;50.50;47.70
19586;DHT22;9939;49.246;9.106;2022-08-03T15:48:38;51.30;46.70
19586;DHT22;9939;49.246;9.106;2022-08-03T15:51:06;51.40;46.10
19586;DHT22;9939;49.246;9.106;2022-08-03T15:53:33;51.70;46.10
19586;DHT22;9939;49.246;9.106;2022-08-03T15:56:01;52.10;45.60
19586;DHT22;9939;49.246;9.106;2022-08-03T15:58:38;52.40;45.50
19586;DHT22;9939;49.246;9.106;2022-08-03T16:01:25;50.00;46.90
19586;DHT22;9939;49.246;9.106;2022-08-03T16:03:52;47.00;50.00
19586;DHT22;9939;49.246;9.106;2022-08-03T16:06:19;45.40;50.80
19586;DHT22;9939;49.246;9.106;2022-08-03T16:09:00;46.80;49.70
19586;DHT22;9939;49.246;9.106;2022-08-03T16:11:27;45.90;50.30
19586;DHT22;9939;49.246;9.106;2022-08-03T16:13:54;45.70;50.40
19586;DHT22;9939;49.246;9.106;2022-08-03T16:16:41;48.90;48.90
19586;DHT22;9939;49.246;9.106;2022-08-03T16:19:08;50.20;47.00
19586;DHT22;9939;49.246;9.106;2022-08-03T16:21:35;49.40;47.10
19586;DHT22;9939;49.246;9.106;2022-08-03T16:24:14;49.50;47.50
19586;DHT22;9939;49.246;9.106;2022-08-03T16:26:45;49.20;47.60
19586;DHT22;9939;49.246;9.106;2022-08-03T16:29:12;49.20;47.20
19586;DHT22;9939;49.246;9.106;2022-08-03T16:31:50;49.40;47.20
19586;DHT22;9939;49.246;9.106;2022-08-03T16:34:18;48.50;48.20
19586;DHT22;9939;49.246;9.106;2022-08-03T16:36:45;48.80;47.30
19586;DHT22;9939;49.246;9.106;2022-08-03T16:39:12;49.00;48.30
19586;DHT22;9939;49.246;9.106;2022-08-03T16:41:39;48.30;48.10
19586;DHT22;9939;49.246;9.106;2022-08-03T16:44:28;48.50;47.90
19586;DHT22;9939;49.246;9.106;2022-08-03T16:46:56;47.90;47.50